createdAt,value
2018-04-17T00:00:34.220Z,40.69
2018-04-17T00:01:43.902Z,40.78
2018-04-17T00:02:53.071Z,40.59
2018-04-17T00:04:02.220Z,40.78
2018-04-17T00:05:11.381Z,40.69
2018-04-17T00:06:20.788Z,40.69
2018-04-17T00:07:29.940Z,40.69
2018-04-17T00:08:39.613Z,40.78
2018-04-17T00:09:48.779Z,40.78
2018-04-17T00:10:58.196Z,40.69
2018-04-17T00:12:07.352Z,40.69
2018-04-17T00:13:16.771Z,40.69
2018-04-17T00:14:26.723Z,40.88
2018-04-17T00:15:36.405Z,40.69
2018-04-17T00:16:45.824Z,40.78
2018-04-17T00:17:55.491Z,40.78
2018-04-17T00:19:04.905Z,40.69
2018-04-17T00:20:14.336Z,40.69
2018-04-17T00:21:23.487Z,40.69
2018-04-17T00:22:32.649Z,40.88
2018-04-17T00:23:42.501Z,40.69
2018-04-17T00:24:51.654Z,40.69
2018-04-17T00:26:01.625Z,40.59
2018-04-17T00:27:11.548Z,40.78
2018-04-17T00:28:21.303Z,40.88
2018-04-17T00:29:31.511Z,40.88
2018-04-17T00:30:40.672Z,40.69
2018-04-17T00:31:50.083Z,40.69
2018-04-17T00:32:59.501Z,40.69
2018-04-17T00:34:08.918Z,40.69
2018-04-17T00:35:17.831Z,40.69
2018-04-17T00:36:26.736Z,40.88
2018-04-17T00:37:36.408Z,40.69
2018-04-17T00:38:45.830Z,40.59
2018-04-17T00:39:54.986Z,40.69
2018-04-17T00:41:04.900Z,40.69
2018-04-17T00:42:14.326Z,40.78
2018-04-17T00:43:24.263Z,40.69
2018-04-17T00:44:33.417Z,40.78
2018-04-17T00:45:42.331Z,40.69
2018-04-17T00:46:52.030Z,40.59
2018-04-17T00:48:00.936Z,40.59
2018-04-17T00:49:10.879Z,40.69
2018-04-17T00:50:20.021Z,40.59
2018-04-17T00:51:28.923Z,40.59
2018-04-17T00:52:38.078Z,40.59
2018-04-17T00:53:48.017Z,40.69
2018-04-17T00:54:57.428Z,40.59
2018-04-17T00:56:06.068Z,40.59
2018-04-17T00:57:15.747Z,40.59
2018-04-17T00:58:25.163Z,40.69
2018-04-17T00:59:34.056Z,40.59
2018-04-17T01:00:43.253Z,40.69
2018-04-17T01:01:52.989Z,40.69
2018-04-17T01:03:02.402Z,40.59
2018-04-17T01:04:11.827Z,40.69
2018-04-17T01:05:21.484Z,40.69
2018-04-17T01:06:30.638Z,40.59
2018-04-17T01:07:40.315Z,40.78
2018-04-17T01:08:49.984Z,40.59
2018-04-17T01:09:58.884Z,40.69
2018-04-17T01:11:08.300Z,40.59
2018-04-17T01:12:18.236Z,40.59
2018-04-17T01:13:27.670Z,40.59
2018-04-17T01:14:37.077Z,40.59
2018-04-17T01:15:47.266Z,40.69
2018-04-17T01:16:55.906Z,40.69
2018-04-17T01:18:05.587Z,40.59
2018-04-17T01:19:15.248Z,40.59
2018-04-17T01:20:24.660Z,40.59
2018-04-17T01:21:33.825Z,40.59
2018-04-17T01:22:43.238Z,40.69
2018-04-17T01:23:52.405Z,40.59
2018-04-17T01:25:01.830Z,40.59
2018-04-17T01:26:11.008Z,40.59
2018-04-17T01:27:20.410Z,40.69
2018-04-17T01:28:29.589Z,40.5
2018-04-17T01:29:39.007Z,40.59
2018-04-17T01:30:47.955Z,40.59
2018-04-17T01:31:57.117Z,40.5
2018-04-17T01:33:06.546Z,40.59
2018-04-17T01:34:15.982Z,40.69
2018-04-17T01:35:25.655Z,40.59
2018-04-17T01:36:34.550Z,40.5
2018-04-17T01:37:43.956Z,40.59
2018-04-17T01:38:53.375Z,40.59
2018-04-17T01:40:03.060Z,40.5
2018-04-17T01:41:12.244Z,40.59
2018-04-17T01:42:21.660Z,40.69
2018-04-17T01:43:31.073Z,40.67
2018-04-17T01:44:40.480Z,40.59
2018-04-17T01:45:49.893Z,40.59
2018-04-17T01:46:59.560Z,40.69
2018-04-17T01:48:08.744Z,40.59
2018-04-17T01:49:18.417Z,40.88
2018-04-17T01:50:27.314Z,40.59
2018-04-17T01:51:36.997Z,40.88
2018-04-17T01:52:46.432Z,40.59
2018-04-17T01:53:56.115Z,40.78
2018-04-17T01:55:05.279Z,40.69
2018-04-17T01:56:15.002Z,40.88
2018-04-17T01:57:24.470Z,40.78
2018-04-17T01:58:34.043Z,40.88
2018-04-17T01:59:43.727Z,40.88
2018-04-17T02:00:53.164Z,40.88
2018-04-17T02:02:02.837Z,40.78
2018-04-17T02:03:12.259Z,40.57
2018-04-17T02:04:22.187Z,40.78
2018-04-17T02:05:31.347Z,40.77
2018-04-17T02:06:40.531Z,40.88
2018-04-17T02:07:49.966Z,40.88
2018-04-17T02:08:58.874Z,40.78
2018-04-17T02:10:08.567Z,40.88
2018-04-17T02:11:18.025Z,40.69
2018-04-17T02:12:27.462Z,40.77
2018-04-17T02:13:36.881Z,40.78
2018-04-17T02:14:46.299Z,40.88
2018-04-17T02:15:55.475Z,40.78
2018-04-17T02:17:04.892Z,40.77
2018-04-17T02:18:14.304Z,40.77
2018-04-17T02:19:23.258Z,40.77
2018-04-17T02:20:32.745Z,40.78
2018-04-17T02:21:42.166Z,40.88
2018-04-17T02:22:51.573Z,40.78
2018-04-17T02:24:00.515Z,40.88
2018-04-17T02:25:09.938Z,40.77
2018-04-17T02:26:19.096Z,40.86
2018-04-17T02:27:29.053Z,40.78
2018-04-17T02:28:38.476Z,40.78
2018-04-17T02:29:48.410Z,40.77
2018-04-17T02:30:57.052Z,40.78
2018-04-17T02:32:06.219Z,40.67
2018-04-17T02:33:16.187Z,40.78
2018-04-17T02:34:25.611Z,40.78
2018-04-17T02:35:34.791Z,40.69
2018-04-17T02:36:44.483Z,40.78
2018-04-17T02:37:53.671Z,40.78
2018-04-17T02:39:03.102Z,40.78
2018-04-17T02:40:12.524Z,40.78
2018-04-17T02:41:22.213Z,40.69
2018-04-17T02:42:31.889Z,40.69
2018-04-17T02:43:41.318Z,40.78
2018-04-17T02:44:51.007Z,40.88
2018-04-17T02:46:00.172Z,40.69
2018-04-17T02:47:09.590Z,40.78
2018-04-17T02:48:19.262Z,40.69
2018-04-17T02:49:28.680Z,40.78
2018-04-17T02:50:38.375Z,40.78
2018-04-17T02:51:48.316Z,40.78
2018-04-17T02:52:58.263Z,40.88
2018-04-17T02:54:07.772Z,40.78
2018-04-17T02:55:17.215Z,40.69
2018-04-17T02:56:26.690Z,40.69
2018-04-17T02:57:36.449Z,40.78
2018-04-17T02:58:46.140Z,40.88
2018-04-17T02:59:55.583Z,40.77
2018-04-17T03:01:05.271Z,40.5
2018-04-17T03:02:14.681Z,40.4
2018-04-17T03:03:24.373Z,40.77
2018-04-17T03:04:34.316Z,40.88
2018-04-17T03:05:44.254Z,40.5
2018-04-17T03:06:53.660Z,40.69
2018-04-17T03:08:03.329Z,40.77
2018-04-17T03:09:12.521Z,40.69
2018-04-17T03:10:21.429Z,40.78
2018-04-17T03:11:31.107Z,40.78
2018-04-17T03:12:40.285Z,40.5
2018-04-17T03:13:49.723Z,40.3
2018-04-17T03:14:59.399Z,40.59
2018-04-17T03:16:08.562Z,40.88
2018-04-17T03:17:17.721Z,40.59
2018-04-17T03:18:26.875Z,40.4
2018-04-17T03:19:36.032Z,40.59
2018-04-17T03:20:45.185Z,40.78
2018-04-17T03:21:55.111Z,40.77
2018-04-17T03:23:05.048Z,40.4
2018-04-17T03:24:14.205Z,40.78
2018-04-17T03:25:23.878Z,40.4
2018-04-17T03:26:33.552Z,40.78
2018-04-17T03:27:42.989Z,40.3
2018-04-17T03:28:52.404Z,40.3
2018-04-17T03:30:01.559Z,40.78
2018-04-17T03:31:11.244Z,40.3
2018-04-17T03:32:20.157Z,40.78
2018-04-17T03:33:29.831Z,40.3
2018-04-17T03:34:38.993Z,40.3
2018-04-17T03:35:48.149Z,40.3
2018-04-17T03:36:57.307Z,40.3
2018-04-17T03:38:06.735Z,40.3
2018-04-17T03:39:16.405Z,40.78
2018-04-17T03:40:26.160Z,40.3
2018-04-17T03:41:35.608Z,40.3
2018-04-17T03:42:44.502Z,40.3
2018-04-17T03:43:54.432Z,40.3
2018-04-17T03:45:03.333Z,40.38
2018-04-17T03:46:12.757Z,40.88
2018-04-17T03:47:21.672Z,40.3
2018-04-17T03:48:30.831Z,40.3
2018-04-17T03:49:40.535Z,40.3
2018-04-17T03:50:49.968Z,40.28
2018-04-17T03:51:59.139Z,40.3
2018-04-17T03:53:08.312Z,40.4
2018-04-17T03:54:17.737Z,40.4
2018-04-17T03:55:27.155Z,40.4
2018-04-17T03:56:36.567Z,40.4
2018-04-17T03:57:45.711Z,40.38
2018-04-17T03:58:55.127Z,40.4
2018-04-17T04:00:04.294Z,40.4
2018-04-17T04:01:13.705Z,40.38
2018-04-17T04:02:23.150Z,40.3
2018-04-17T04:03:32.845Z,40.3
2018-04-17T04:04:42.274Z,40.38
2018-04-17T04:05:51.951Z,40.38
2018-04-17T04:07:01.361Z,40.28
2018-04-17T04:08:10.543Z,40.4
2018-04-17T04:09:20.214Z,40.28
2018-04-17T04:10:29.363Z,40.4
2018-04-17T04:11:38.849Z,40.5
2018-04-17T04:12:48.253Z,40.4
2018-04-17T04:13:57.412Z,40.38
2018-04-17T04:15:07.605Z,40.4
2018-04-17T04:16:17.568Z,40.38
2018-04-17T04:17:26.736Z,40.28
2018-04-17T04:18:36.674Z,40.3
2018-04-17T04:19:45.829Z,40.5
2018-04-17T04:20:55.237Z,40.38
2018-04-17T04:22:03.880Z,40.3
2018-04-17T04:23:12.786Z,40.28
2018-04-17T04:24:21.928Z,40.47
2018-04-17T04:25:31.623Z,40.47
2018-04-17T04:26:41.470Z,40.3
2018-04-17T04:27:50.891Z,40.47
2018-04-17T04:29:00.839Z,40.4
2018-04-17T04:30:09.735Z,40.47
2018-04-17T04:31:19.137Z,40.3
2018-04-17T04:32:28.835Z,40.4
2018-04-17T04:33:37.737Z,40.47
2018-04-17T04:34:46.974Z,40.47
2018-04-17T04:35:56.756Z,40.5
2018-04-17T04:37:06.436Z,40.4
2018-04-17T04:38:16.364Z,40.38
2018-04-17T04:39:25.786Z,40.47
2018-04-17T04:40:35.481Z,40.5
2018-04-17T04:41:45.158Z,40.3
2018-04-17T04:42:55.090Z,40.57
2018-04-17T04:44:04.256Z,40.38
2018-04-17T04:45:13.671Z,40.47
2018-04-17T04:46:23.334Z,40.38
2018-04-17T04:47:33.060Z,40.4
2018-04-17T04:48:43.003Z,40.38
2018-04-17T04:49:51.925Z,40.5
2018-04-17T04:51:01.322Z,40.38
2018-04-17T04:52:11.105Z,40.57
2018-04-17T04:53:20.668Z,40.38
2018-04-17T04:54:29.814Z,40.5
2018-04-17T04:55:39.237Z,40.47
2018-04-17T04:56:48.157Z,40.5
2018-04-17T04:57:57.580Z,40.5
2018-04-17T04:59:07.278Z,40.4
2018-04-17T05:00:16.954Z,40.4
2018-04-17T05:01:26.104Z,40.38
2018-04-17T05:02:35.529Z,40.38
2018-04-17T05:03:44.701Z,40.47
2018-04-17T05:04:54.241Z,40.5
2018-04-17T05:06:03.680Z,40.5
2018-04-17T05:07:13.367Z,40.38
2018-04-17T05:08:22.268Z,40.47
2018-04-17T05:09:31.420Z,40.38
2018-04-17T05:10:40.591Z,40.5
2018-04-17T05:11:50.305Z,40.5
2018-04-17T05:13:00.135Z,40.3
2018-04-17T05:14:09.299Z,40.38
2018-04-17T05:15:18.744Z,40.28
2018-04-17T05:16:27.937Z,40.38
2018-04-17T05:17:37.860Z,40.59
2018-04-17T05:18:47.532Z,40.57
2018-04-17T05:19:56.948Z,40.4
2018-04-17T05:21:05.855Z,40.47
2018-04-17T05:22:15.594Z,40.38
2018-04-17T05:23:25.020Z,40.47
2018-04-17T05:24:34.455Z,40.47
2018-04-17T05:25:43.871Z,40.38
2018-04-17T05:26:53.551Z,40.38
2018-04-17T05:28:02.715Z,40.57
2018-04-17T05:29:12.374Z,40.28
2018-04-17T05:30:21.282Z,40.57
2018-04-17T05:31:30.732Z,40.38
2018-04-17T05:32:40.141Z,40.38
2018-04-17T05:33:49.567Z,40.47
2018-04-17T05:34:58.729Z,40.47
2018-04-17T05:36:07.963Z,40.38
2018-04-17T05:37:17.638Z,40.4
2018-04-17T05:38:26.552Z,40.59
2018-04-17T05:39:35.986Z,40.38
2018-04-17T05:40:45.666Z,40.38
2018-04-17T05:41:55.349Z,40.4
2018-04-17T05:43:05.038Z,40.4
2018-04-17T05:44:14.475Z,40.47
2018-04-17T05:45:24.159Z,40.5
2018-04-17T05:46:33.317Z,40.47
2018-04-17T05:47:42.743Z,40.47
2018-04-17T05:48:52.175Z,40.4
2018-04-17T05:50:01.869Z,40.5
2018-04-17T05:51:11.043Z,40.38
2018-04-17T05:52:20.451Z,40.38
2018-04-17T05:53:29.866Z,40.38
2018-04-17T05:54:39.077Z,40.4
2018-04-17T05:55:48.859Z,40.47
2018-04-17T05:56:58.496Z,40.47
2018-04-17T05:58:07.416Z,40.38
2018-04-17T05:59:16.834Z,40.38
2018-04-17T06:00:26.787Z,40.5
2018-04-17T06:01:35.957Z,40.47
2018-04-17T06:02:44.858Z,40.38
2018-04-17T06:03:54.275Z,40.38
2018-04-17T06:05:03.437Z,40.47
2018-04-17T06:06:13.214Z,40.4
2018-04-17T06:07:22.620Z,40.38
2018-04-17T06:08:32.321Z,40.47
2018-04-17T06:09:41.480Z,40.57
2018-04-17T06:10:50.912Z,40.5
2018-04-17T06:11:59.838Z,40.57
2018-04-17T06:13:08.997Z,40.4
2018-04-17T06:14:18.685Z,40.38
2018-04-17T06:15:28.151Z,40.57
2018-04-17T06:16:37.862Z,40.57
2018-04-17T06:17:47.562Z,40.5
2018-04-17T06:18:57.520Z,40.47
2018-04-17T06:20:07.202Z,40.69
2018-04-17T06:21:16.881Z,40.69
2018-04-17T06:22:26.289Z,40.59
2018-04-17T06:23:36.258Z,40.69
2018-04-17T06:24:45.418Z,40.69
2018-04-17T06:25:55.095Z,40.59
2018-04-17T06:27:05.075Z,40.57
2018-04-17T06:28:14.497Z,40.67
2018-04-17T06:29:24.194Z,40.57
2018-04-17T06:30:33.360Z,40.67
2018-04-17T06:31:42.778Z,40.67
2018-04-17T06:32:51.924Z,40.67
2018-04-17T06:34:01.613Z,40.67
2018-04-17T06:35:10.839Z,40.59
2018-04-17T06:36:20.191Z,40.67
2018-04-17T06:37:29.100Z,40.47
2018-04-17T06:38:38.507Z,40.47
2018-04-17T06:39:48.181Z,40.69
2018-04-17T06:40:57.329Z,40.2
2018-04-17T06:42:06.533Z,40.2
2018-04-17T06:43:16.500Z,40.59
2018-04-17T06:44:26.174Z,40.09
2018-04-17T06:45:35.327Z,40.28
2018-04-17T06:46:44.749Z,40.09
2018-04-17T06:47:53.647Z,40.3
2018-04-17T06:49:03.075Z,40.09
2018-04-17T06:50:12.501Z,40.09
2018-04-17T06:51:21.912Z,40.09
2018-04-17T06:52:31.140Z,40.2
2018-04-17T06:53:40.422Z,40.09
2018-04-17T06:54:50.110Z,40.09
2018-04-17T06:55:59.794Z,40.01
2018-04-17T06:57:08.962Z,40.09
2018-04-17T06:58:18.900Z,39.99
2018-04-17T06:59:28.080Z,40.09
2018-04-17T07:00:37.755Z,40.2
2018-04-17T07:01:47.190Z,40.09
2018-04-17T07:02:56.357Z,39.92
2018-04-17T07:04:05.803Z,40.11
2018-04-17T07:05:15.346Z,40.01
2018-04-17T07:06:24.842Z,40.11
2018-04-17T07:07:34.527Z,39.82
2018-04-17T07:08:43.675Z,40.01
2018-04-17T07:09:52.577Z,40.01
2018-04-17T07:11:02.266Z,39.72
2018-04-17T07:12:11.959Z,39.92
2018-04-17T07:13:21.643Z,39.7
2018-04-17T07:14:31.316Z,40.09
2018-04-17T07:15:40.472Z,39.9
2018-04-17T07:16:49.901Z,40.01
2018-04-17T07:17:59.916Z,39.92
2018-04-17T07:19:09.427Z,39.72
2018-04-17T07:20:19.336Z,40.09
2018-04-17T07:21:29.017Z,39.82
2018-04-17T07:22:38.448Z,39.82
2018-04-17T07:23:48.000Z,39.82
2018-04-17T07:24:57.490Z,39.82
2018-04-17T07:26:07.193Z,39.72
2018-04-17T07:27:16.345Z,39.92
2018-04-17T07:28:25.770Z,39.72
2018-04-17T07:29:35.445Z,40.11
2018-04-17T07:30:44.354Z,40.11
2018-04-17T07:31:53.546Z,40.01
2018-04-17T07:33:03.219Z,40.01
2018-04-17T07:34:12.125Z,40.11
2018-04-17T07:35:21.540Z,40.01
2018-04-17T07:36:31.216Z,40.01
2018-04-17T07:37:55.563Z,39.99
2018-04-17T07:39:05.231Z,40.11
2018-04-17T07:40:14.895Z,40.11
2018-04-17T07:41:24.467Z,40.11
2018-04-17T07:42:33.894Z,40.2
2018-04-17T07:43:43.071Z,40.01
2018-04-17T07:44:52.748Z,39.82
2018-04-17T07:46:01.902Z,40.01
2018-04-17T07:47:10.797Z,39.92
2018-04-17T07:48:20.485Z,40.01
2018-04-17T07:49:30.165Z,40.01
2018-04-17T07:50:40.097Z,39.82
2018-04-17T07:51:49.515Z,40.01
2018-04-17T07:52:59.192Z,39.82
2018-04-17T07:54:08.882Z,39.82
2018-04-17T07:55:18.298Z,39.82
2018-04-17T07:56:27.978Z,39.82
2018-04-17T07:57:37.130Z,39.9
2018-04-17T07:58:46.555Z,39.92
2018-04-17T07:59:55.780Z,39.82
2018-04-17T08:01:04.937Z,39.82
2018-04-17T08:02:14.106Z,39.8
2018-04-17T08:03:23.776Z,39.82
2018-04-17T08:04:33.519Z,39.82
2018-04-17T08:05:43.020Z,39.82
2018-04-17T08:06:52.705Z,39.82
2018-04-17T08:08:02.140Z,39.82
2018-04-17T08:09:11.855Z,39.82
2018-04-17T08:10:21.557Z,39.82
2018-04-17T08:11:31.487Z,39.92
2018-04-17T08:12:41.416Z,39.82
2018-04-17T08:13:50.920Z,39.82
2018-04-17T08:15:00.079Z,39.82
2018-04-17T08:16:09.759Z,39.82
2018-04-17T08:17:18.902Z,39.92
2018-04-17T08:18:28.334Z,39.82
2018-04-17T08:19:38.283Z,39.82
2018-04-17T08:20:47.180Z,39.72
2018-04-17T08:21:56.597Z,39.92
2018-04-17T08:23:06.015Z,39.82
2018-04-17T08:24:15.457Z,39.92
2018-04-17T08:25:25.168Z,39.82
2018-04-17T08:26:34.338Z,39.92
2018-04-17T08:27:44.013Z,39.92
2018-04-17T08:28:53.989Z,39.82
2018-04-17T08:30:03.402Z,39.92
2018-04-17T08:31:12.562Z,39.92
2018-04-17T08:32:22.499Z,39.92
2018-04-17T08:33:32.183Z,39.82
2018-04-17T08:34:41.586Z,39.62
2018-04-17T08:35:51.514Z,39.92
2018-04-17T08:37:00.477Z,39.72
2018-04-17T08:38:09.676Z,39.82
2018-04-17T08:39:18.835Z,40.01
2018-04-17T08:40:28.291Z,39.92
2018-04-17T08:41:37.456Z,39.82
2018-04-17T08:42:47.429Z,39.62
2018-04-17T08:43:57.540Z,39.62
2018-04-17T08:45:06.954Z,39.82
2018-04-17T08:46:16.659Z,39.82
2018-04-17T08:47:25.836Z,40.01
2018-04-17T08:48:35.039Z,39.62
2018-04-17T08:49:44.473Z,39.82
2018-04-17T08:50:53.903Z,39.72
2018-04-17T08:52:03.328Z,39.82
2018-04-17T08:53:13.027Z,39.82
2018-04-17T08:54:21.659Z,39.72
2018-04-17T08:55:31.166Z,39.62
2018-04-17T08:56:40.352Z,39.72
2018-04-17T08:57:49.782Z,39.62
2018-04-17T08:58:59.226Z,39.62
2018-04-17T09:00:08.650Z,39.62
2018-04-17T09:01:17.590Z,39.62
2018-04-17T09:02:27.267Z,39.62
2018-04-17T09:03:36.523Z,39.72
2018-04-17T09:04:45.422Z,39.53
2018-04-17T09:05:54.936Z,39.43
2018-04-17T09:07:04.598Z,39.34
2018-04-17T09:08:14.011Z,39.34
2018-04-17T09:09:23.440Z,39.53
2018-04-17T09:10:32.391Z,39.53
2018-04-17T09:11:41.563Z,39.24
2018-04-17T09:12:51.367Z,39.53
2018-04-17T09:14:01.299Z,39.34
2018-04-17T09:15:10.747Z,39.53
2018-04-17T09:16:19.634Z,39.24
2018-04-17T09:17:28.796Z,39.53
2018-04-17T09:18:38.211Z,39.34
2018-04-17T09:19:48.162Z,39.43
2018-04-17T09:20:57.324Z,39.53
2018-04-17T09:22:06.749Z,39.62
2018-04-17T09:23:15.660Z,39.34
2018-04-17T09:24:24.828Z,39.24
2018-04-17T09:25:33.979Z,39.24
2018-04-17T09:26:43.460Z,39.53
2018-04-17T09:27:53.158Z,39.53
2018-04-17T09:29:02.829Z,39.62
2018-04-17T09:30:12.257Z,39.53
2018-04-17T09:31:21.962Z,39.43
2018-04-17T09:32:30.632Z,39.62
2018-04-17T09:33:40.317Z,39.43
2018-04-17T09:34:49.477Z,39.53
2018-04-17T09:35:58.979Z,39.53
2018-04-17T09:37:08.770Z,39.53
2018-04-17T09:38:18.198Z,39.62
2018-04-17T09:39:27.670Z,39.24
2018-04-17T09:40:36.846Z,39.62
2018-04-17T09:41:46.790Z,39.53
2018-04-17T09:42:56.217Z,39.62
2018-04-17T09:44:05.370Z,39.53
2018-04-17T09:45:14.547Z,39.62
2018-04-17T09:46:24.211Z,39.53
2018-04-17T09:47:33.105Z,39.24
2018-04-17T09:48:42.785Z,39.53
2018-04-17T09:49:52.363Z,39.34
2018-04-17T09:51:01.832Z,39.53
2018-04-17T09:52:11.511Z,39.34
2018-04-17T09:53:20.931Z,39.53
2018-04-17T09:54:30.591Z,39.43
2018-04-17T09:55:40.011Z,39.34
2018-04-17T09:56:49.166Z,39.53
2018-04-17T09:57:58.957Z,39.24
2018-04-17T09:59:08.655Z,39.34
2018-04-17T10:00:17.576Z,39.62
2018-04-17T10:01:27.276Z,39.34
2018-04-17T10:02:36.939Z,39.24
2018-04-17T10:03:46.366Z,39.34
2018-04-17T10:04:55.524Z,39.62
2018-04-17T10:06:04.999Z,39.53
2018-04-17T10:07:14.149Z,39.62
2018-04-17T10:08:23.548Z,39.72
2018-04-17T10:09:33.211Z,39.62
2018-04-17T10:10:42.924Z,39.43
2018-04-17T10:11:52.596Z,39.72
2018-04-17T10:13:01.878Z,39.72
2018-04-17T10:14:11.594Z,39.24
2018-04-17T10:15:21.011Z,39.62
2018-04-17T10:16:30.194Z,39.72
2018-04-17T10:17:39.598Z,39.53
2018-04-17T10:18:49.015Z,39.53
2018-04-17T10:19:58.252Z,39.62
2018-04-17T10:21:07.939Z,39.62
2018-04-17T10:22:17.622Z,39.53
2018-04-17T10:23:27.035Z,39.53
2018-04-17T10:24:36.490Z,39.24
2018-04-17T10:25:45.901Z,39.62
2018-04-17T10:26:55.318Z,39.62
2018-04-17T10:28:05.299Z,39.62
2018-04-17T10:29:14.964Z,39.53
2018-04-17T10:30:24.213Z,39.72
2018-04-17T10:31:33.698Z,39.62
2018-04-17T10:32:43.133Z,39.62
2018-04-17T10:33:52.545Z,39.62
2018-04-17T10:35:01.707Z,39.24
2018-04-17T10:36:11.375Z,39.43
2018-04-17T10:37:20.548Z,39.53
2018-04-17T10:38:29.960Z,39.53
2018-04-17T10:39:39.453Z,39.62
2018-04-17T10:40:48.941Z,39.72
2018-04-17T10:41:58.612Z,39.62
2018-04-17T10:43:07.846Z,39.72
2018-04-17T10:44:17.294Z,39.62
2018-04-17T10:45:26.223Z,39.43
2018-04-17T10:46:35.162Z,39.34
2018-04-17T10:47:45.149Z,39.62
2018-04-17T10:48:54.065Z,39.34
2018-04-17T10:50:03.501Z,39.53
2018-04-17T10:51:12.667Z,39.53
2018-04-17T10:52:22.335Z,39.43
2018-04-17T10:53:31.485Z,39.53
2018-04-17T10:54:40.644Z,39.43
2018-04-17T10:55:50.311Z,39.34
2018-04-17T10:56:59.223Z,39.53
2018-04-17T10:58:08.383Z,39.43
2018-04-17T10:59:17.560Z,39.34
2018-04-17T11:00:26.979Z,39.53
2018-04-17T11:01:35.874Z,39.53
2018-04-17T11:02:45.563Z,39.34
2018-04-17T11:03:55.028Z,39.43
2018-04-17T11:05:04.721Z,39.53
2018-04-17T11:06:13.888Z,39.43
2018-04-17T11:07:23.324Z,39.53
2018-04-17T11:08:32.768Z,39.43
2018-04-17T11:09:42.189Z,39.34
2018-04-17T11:10:51.635Z,39.24
2018-04-17T11:12:01.317Z,39.43
2018-04-17T11:13:10.743Z,39.43
2018-04-17T11:14:19.640Z,39.53
2018-04-17T11:15:29.369Z,39.53
2018-04-17T11:16:38.534Z,39.62
2018-04-17T11:17:47.965Z,39.62
2018-04-17T11:18:57.667Z,39.43
2018-04-17T11:20:06.553Z,39.43
2018-04-17T11:21:15.202Z,39.53
2018-04-17T11:22:24.355Z,39.62
2018-04-17T11:23:33.797Z,39.43
2018-04-17T11:24:42.438Z,39.34
2018-04-17T11:25:51.841Z,39.53
2018-04-17T11:27:01.012Z,39.53
2018-04-17T11:28:10.688Z,39.53
2018-04-17T11:29:20.095Z,39.43
2018-04-17T11:30:29.268Z,39.43
2018-04-17T11:31:38.189Z,39.62
2018-04-17T11:32:47.605Z,39.43
2018-04-17T11:33:56.759Z,39.53
2018-04-17T11:35:06.184Z,39.43
2018-04-17T11:36:15.139Z,39.53
2018-04-17T11:37:23.787Z,39.53
2018-04-17T11:38:33.217Z,39.43
2018-04-17T11:39:42.386Z,39.53
2018-04-17T11:40:51.806Z,39.53
2018-04-17T11:42:01.497Z,39.53
2018-04-17T11:43:10.989Z,39.53
2018-04-17T11:44:20.664Z,39.53
2018-04-17T11:45:29.582Z,39.53
2018-04-17T11:46:39.036Z,39.53
2018-04-17T11:47:48.734Z,39.62
2018-04-17T11:48:57.903Z,39.62
2018-04-17T11:50:07.063Z,39.62
2018-04-17T11:51:16.483Z,39.62
2018-04-17T11:52:25.654Z,39.53
2018-04-17T11:53:34.546Z,39.62
2018-04-17T11:54:43.455Z,39.62
2018-04-17T11:55:52.875Z,39.53
2018-04-17T11:57:02.551Z,39.43
2018-04-17T11:58:11.463Z,39.72
2018-04-17T11:59:20.922Z,39.62
2018-04-17T12:00:29.830Z,39.62
2018-04-17T12:01:39.510Z,39.72
2018-04-17T12:02:49.193Z,39.53
2018-04-17T12:03:58.876Z,39.53
2018-04-17T12:05:08.350Z,39.62
2018-04-17T12:06:18.200Z,39.62
2018-04-17T12:07:27.647Z,39.62
2018-04-17T12:08:36.821Z,39.62
2018-04-17T12:09:46.281Z,39.62
2018-04-17T12:10:55.703Z,39.43
2018-04-17T12:12:05.378Z,39.62
2018-04-17T12:13:14.815Z,39.62
2018-04-17T12:14:23.531Z,39.43
2018-04-17T12:15:33.470Z,39.43
2018-04-17T12:16:42.897Z,39.53
2018-04-17T12:17:52.064Z,39.53
2018-04-17T12:19:01.250Z,39.53
2018-04-17T12:20:10.664Z,39.53
2018-04-17T12:21:20.101Z,39.62
2018-04-17T12:22:29.522Z,39.53
2018-04-17T12:23:39.226Z,39.43
2018-04-17T12:24:48.378Z,39.53
2018-04-17T12:25:58.135Z,39.62
2018-04-17T12:27:07.795Z,39.53
2018-04-17T12:28:17.198Z,39.53
2018-04-17T12:29:26.382Z,39.53
2018-04-17T12:30:36.072Z,39.53
2018-04-17T12:31:45.229Z,39.43
2018-04-17T12:32:55.182Z,39.53
2018-04-17T12:34:04.339Z,39.43
2018-04-17T12:35:13.250Z,39.53
2018-04-17T12:36:22.679Z,39.53
2018-04-17T12:37:32.128Z,39.53
2018-04-17T12:38:41.917Z,39.43
2018-04-17T12:39:51.603Z,39.53
2018-04-17T12:41:01.030Z,39.53
2018-04-17T12:42:10.193Z,39.43
2018-04-17T12:43:19.874Z,39.62
2018-04-17T12:44:29.795Z,39.53
2018-04-17T12:45:39.272Z,39.62
2018-04-17T12:46:49.227Z,39.62
2018-04-17T12:47:58.653Z,39.62
2018-04-17T12:49:08.332Z,39.72
2018-04-17T12:50:17.756Z,39.72
2018-04-17T12:51:27.924Z,39.62
2018-04-17T12:52:37.394Z,39.62
2018-04-17T12:53:46.817Z,39.72
2018-04-17T12:54:55.984Z,39.34
2018-04-17T12:56:05.426Z,39.14
2018-04-17T12:57:14.102Z,39.04
2018-04-17T12:58:23.262Z,39.62
2018-04-17T12:59:32.155Z,39.72
2018-04-17T13:00:41.042Z,39.04
2018-04-17T13:01:50.964Z,38.95
2018-04-17T13:03:00.385Z,39.14
2018-04-17T13:04:09.559Z,39.14
2018-04-17T13:05:18.987Z,38.95
2018-04-17T13:06:28.691Z,39.14
2018-04-17T13:07:37.599Z,39.14
2018-04-17T13:08:47.149Z,39.14
2018-04-17T13:09:57.072Z,39.04
2018-04-17T13:11:06.488Z,39.14
2018-04-17T13:12:15.405Z,38.95
2018-04-17T13:13:24.828Z,39.14
2018-04-17T13:14:34.263Z,39.14
2018-04-17T13:15:43.980Z,39.14
2018-04-17T13:16:53.795Z,39.04
2018-04-17T13:18:03.223Z,39.04
2018-04-17T13:19:12.396Z,38.95
2018-04-17T13:20:21.308Z,39.14
2018-04-17T13:21:30.996Z,38.95
2018-04-17T13:22:40.165Z,39.14
2018-04-17T13:23:49.578Z,39.34
2018-04-17T13:24:58.477Z,39.04
2018-04-17T13:26:08.166Z,39.34
2018-04-17T13:27:17.641Z,39.34
2018-04-17T13:28:26.560Z,39.24
2018-04-17T13:29:35.707Z,38.95
2018-04-17T13:30:45.374Z,39.34
2018-04-17T13:31:54.805Z,39.34
2018-04-17T13:33:04.217Z,39.34
2018-04-17T13:34:13.653Z,39.53
2018-04-17T13:35:22.811Z,39.53
2018-04-17T13:36:31.720Z,39.43
2018-04-17T13:37:41.134Z,39.53
2018-04-17T13:38:50.806Z,39.53
2018-04-17T13:39:59.973Z,39.45
2018-04-17T13:41:09.397Z,39.43
2018-04-17T13:42:18.579Z,39.53
2018-04-17T13:43:27.563Z,39.43
2018-04-17T13:44:37.241Z,39.43
2018-04-17T13:45:46.410Z,39.55
2018-04-17T13:46:56.358Z,39.14
2018-04-17T13:48:06.040Z,39.16
2018-04-17T13:49:15.994Z,39.16
2018-04-17T13:50:25.760Z,39.26
2018-04-17T13:51:34.917Z,38.87
2018-04-17T13:52:44.329Z,38.87
2018-04-17T13:53:53.994Z,38.97
2018-04-17T13:55:03.688Z,39.04
2018-04-17T13:56:13.131Z,39.06
2018-04-17T13:57:22.846Z,38.97
2018-04-17T13:58:32.520Z,38.68
2018-04-17T13:59:42.195Z,38.87
2018-04-17T14:00:51.172Z,38.78
2018-04-17T14:02:00.332Z,38.68
2018-04-17T14:03:08.965Z,38.97
2018-04-17T14:04:18.401Z,38.78
2018-04-17T14:05:27.826Z,38.68
2018-04-17T14:06:37.242Z,38.78
2018-04-17T14:07:46.930Z,38.87
2018-04-17T14:08:56.101Z,38.68
2018-04-17T14:10:05.777Z,38.58
2018-04-17T14:11:15.466Z,38.87
2018-04-17T14:12:25.143Z,38.87
2018-04-17T14:13:34.311Z,38.87
2018-04-17T14:14:43.968Z,38.87
2018-04-17T14:15:53.145Z,38.78
2018-04-17T14:17:02.881Z,38.68
2018-04-17T14:18:12.031Z,38.68
2018-04-17T14:19:21.444Z,38.78
2018-04-17T14:20:30.608Z,38.78
2018-04-17T14:21:39.529Z,38.68
2018-04-17T14:22:48.702Z,38.68
2018-04-17T14:23:58.370Z,38.78
2018-04-17T14:25:07.804Z,38.78
2018-04-17T14:26:17.774Z,38.68
2018-04-17T14:27:26.931Z,38.68
2018-04-17T14:28:36.339Z,38.78
2018-04-17T14:29:46.268Z,38.78
2018-04-17T14:30:55.436Z,38.58
2018-04-17T14:32:04.856Z,38.78
2018-04-17T14:33:14.271Z,38.68
2018-04-17T14:34:23.754Z,38.78
2018-04-17T14:35:33.424Z,38.58
2018-04-17T14:36:42.841Z,38.68
2018-04-17T14:37:52.004Z,38.78
2018-04-17T14:39:01.668Z,38.68
2018-04-17T14:40:11.075Z,38.87
2018-04-17T14:41:20.757Z,38.68
2018-04-17T14:42:30.671Z,38.68
2018-04-17T14:43:40.453Z,38.87
2018-04-17T14:44:50.184Z,38.78
2018-04-17T14:45:59.338Z,38.78
2018-04-17T14:47:08.238Z,38.68
2018-04-17T14:48:17.656Z,38.68
2018-04-17T14:49:26.546Z,38.78
2018-04-17T14:50:35.690Z,38.78
2018-04-17T14:51:44.839Z,38.78
2018-04-17T14:52:54.242Z,38.68
2018-04-17T14:54:03.668Z,38.68
2018-04-17T14:55:12.815Z,38.68
2018-04-17T14:56:22.251Z,38.78
2018-04-17T14:57:31.410Z,38.87